• Join FlightAware (Why Join?)
  • Login
  • US Flag 
08:29PM EDT


 

Airport Tracker/Info


-or-


 

Live Flight TrackerFlight Track Log ✈ SWA3135 ✈ 29-Mar-2014 ✈ KLAS - KOAK

Flight Track Log - Related Links

Times and Time Zones

All times are in EDT time to prevent confusion due to time zone crossing. See the SWA3135 flight status page for this flight to view local times or setup timezone preferences in your user account.

Time Position Orientation Groundspeed Altitude Reporting Facility
EDT Latitude Longitude Course Direction KTS MPH feet Rate Location/Type
05:23PM 36.0767 -115.1706 268° West 170 196 3,300  Level Los Angeles Center
05:23PM 36.0758 -115.1967 268° West 173 199 4,100 1,680 Climbing Los Angeles Center
05:23PM 36.0753 -115.2136 268° West 189 217 4,500 2,400 Climbing Los Angeles Center
05:24PM 36.0564 -115.2606 244° Southwest 207 238 6,600 2,820 Climbing Los Angeles Center
05:25PM 35.9894 -115.2919 201° Southwest 249 287 9,700 2,580 Climbing Los Angeles Center
05:26PM 35.9286 -115.3533 219° Southwest 299 344 12,000 2,820 Climbing Los Angeles Center
05:27PM 35.8869 -115.4544 243° Southwest 325 374 15,600 3,000 Climbing Los Angeles Center
05:28PM 35.8886 -115.5708 271° West 337 388 18,300 2,460 Climbing Los Angeles Center
05:29PM 35.8906 -115.6956 271° West 362 417 20,700 2,340 Climbing Los Angeles Center
05:30PM 35.8931 -115.8375 271° West 385 443 23,200 2,280 Climbing Los Angeles Center
05:31PM 35.9203 -115.9550 286° West 399 459 25,500 2,220 Climbing Los Angeles Center
05:32PM 36.0181 -116.0756 315° West 424 488 27,800 2,400 Climbing Los Angeles Center
05:33PM 36.1036 -116.1794 316° Northwest 428 493 30,500 1,980 Climbing Los Angeles Center
05:35PM 36.1889 -116.2833 316° Northwest 426 490 32,000 720 Climbing Los Angeles Center
05:36PM 36.2711 -116.3836 315° West 421 484 32,000  Level Los Angeles Center
05:37PM 36.3531 -116.4842 315° West 417 480 32,000  Level Los Angeles Center
05:38PM 36.4339 -116.5833 315° West 415 478 32,000  Level Los Angeles Center
05:39PM 36.5164 -116.6842 316° Northwest 415 478 32,000  Level Los Angeles Center
05:40PM 36.6219 -116.8000 319° Northwest 419 482 32,000  Level Los Angeles Center
05:41PM 36.6697 -116.9214 296° West 401 461 32,000  Level Los Angeles Center
05:42PM 36.7136 -117.0492 293° West 400 460 32,000  Level Los Angeles Center
05:43PM 36.7575 -117.1775 293° West 401 461 32,000  Level Los Angeles Center
05:44PM 36.8019 -117.3108 293° West 401 461 32,000  Level Los Angeles Center
05:45PM 36.8461 -117.4403 293° West 401 461 32,000  Level Los Angeles Center
05:46PM 36.8894 -117.5719 292° West 406 467 32,000  Level Los Angeles Center
05:47PM 36.9322 -117.7033 292° West 406 467 32,000  Level Oakland Center
05:48PM 36.9758 -117.8331 293° West 405 466 32,000  Level Oakland Center
05:49PM 37.0178 -117.9603 292° West 401 461 32,000  Level Oakland Center
05:50PM 37.0597 -118.0900 292° West 401 461 32,000  Level Oakland Center
05:51PM 37.1031 -118.2219 292° West 406 467 32,000  Level Oakland Center
05:52PM 37.1442 -118.3489 292° West 397 457 32,000  Level Oakland Center
05:53PM 37.1833 -118.4761 291° West 399 459 32,000 -480 Level Oakland Center
05:54PM 37.2272 -118.6097 292° West 414 476 31,100 -1,080 Descending Oakland Center
05:55PM 37.2764 -118.7636 292° West 400 460 29,900 -600 Descending Oakland Center
05:56PM 37.3156 -118.8919 291° West 396 456 30,000  Climbing Oakland Center
05:57PM 37.3561 -119.0167 292° West 392 451 30,000  Level Oakland Center
05:58PM 37.3972 -119.1447 292° West 393 452 30,000  Level Oakland Center
05:59PM 37.4364 -119.2725 291° West 393 452 30,000  Level Oakland Center
06:00PM 37.4775 -119.4003 292° West 394 453 30,000  Level Oakland Center
06:01PM 37.5222 -119.5464 291° West 395 455 30,000  Level Oakland Center
06:02PM 37.5614 -119.6764 291° West 396 456 30,000  Level Oakland Center
06:03PM 37.6028 -119.8047 292° West 396 456 30,000 -420 Level Oakland Center
06:04PM 37.6414 -119.9347 291° West 396 456 29,200 -900 Descending Oakland Center
06:05PM 37.6808 -120.0633 291° West 395 455 28,200 -960 Descending Oakland Center
06:06PM 37.7211 -120.1922 292° West 395 455 27,300 -960 Descending Oakland Center
06:07PM 37.7594 -120.3242 290° West 395 455 26,300 -660 Descending Oakland Center
06:08PM 37.8011 -120.4564 292° West 401 461 26,000 -720 Descending Oakland Center
06:09PM 37.8406 -120.5908 290° West 402 463 24,900 -1,380 Descending Oakland Center
06:10PM 37.8622 -120.7244 282° West 392 451 23,200 -2,100 Descending Oakland Center
06:11PM 37.8547 -120.8533 266° West 371 427 20,600 -2,520 Descending Oakland Center
06:12PM 37.8458 -120.9786 265° West 360 414 18,100 -2,640 Descending Oakland Center
06:13PM 37.8369 -121.1206 266° West 342 394 15,300 -2,640 Descending Oakland Center
06:14PM 37.8167 -121.2167 255° West 376 433 13,100 -1,680 Descending Northern Cal TRACON
06:15PM 37.7667 -121.3333 242° Southwest 333 383 12,000 -1,200 Descending Northern Cal TRACON
06:16PM 37.7333 -121.4333 247° West 318 366 10,800 -960 Descending Northern Cal TRACON
06:17PM 37.7000 -121.5500 250° West 296 341 10,100 -900 Descending Northern Cal TRACON
06:18PM 37.6667 -121.6167 238° Southwest 271 312 9,100 -1,140 Descending Northern Cal TRACON
06:19PM 37.6500 -121.7000 256° West 263 303 8,000 -900 Descending Northern Cal TRACON
06:20PM 37.6167 -121.7833 243° Southwest 230 265 7,400 -900 Descending Northern Cal TRACON
06:21PM 37.5833 -121.8500 238° Southwest 216 249 6,300 -1,140 Descending Northern Cal TRACON
06:22PM 37.5667 -121.9167 253° West 218 251 5,200 -1,140 Descending Northern Cal TRACON
06:23PM 37.5500 -121.9833 253° West 219 252 4,100 -900 Descending Northern Cal TRACON
06:24PM 37.5833 -122.0500 302° West 208 239 3,500 -840 Descending Northern Cal TRACON
06:25PM 37.6167 -122.1000 310° West 194 223 2,600 -900 Descending Northern Cal TRACON
06:26PM 37.6500 -122.1333 322° Northwest 141 162 1,800 -780 Descending Northern Cal TRACON
06:27PM 37.6667 -122.1667 302° West 127 146 1,100 -720 Descending Northern Cal TRACON
06:28PM 37.7000 -122.2000 322° Northwest 130 150 400 -720 Descending Northern Cal TRACON
06:31PM 37.7167 -122.2167 270° West  Level FlightAware Approximate